Time;durP1;ratioP1;P1;durP2;ratioP2;P2;SDS_P1;SDS_P2;PMS_P1;PMS_P2;Temp;Humidity;BMP_temperature;BMP_pressure;BME280_temperature;BME280_humidity;BME280_pressure;Samples;Min_cycle;Max_cycle;Signal;HPM_P1;HPM_P2
2021/06/21 00:00:42;;;;;;;21.85;11.45;;;24.60;78.50;;;;;;2105447;28;20412;-68
2021/06/21 00:01:42;;;;;;;17.02;10.93;;;24.70;78.60;;;;;;2105133;28;20628;-68
2021/06/21 00:02:43;;;;;;;15.15;10.60;;;24.60;78.30;;;;;;2105161;28;20062;-67
2021/06/21 00:03:44;;;;;;;12.95;10.48;;;24.60;78.40;;;;;;2105439;28;20024;-68
2021/06/21 00:04:44;;;;;;;14.38;10.50;;;24.60;78.30;;;;;;2105968;28;20028;-68
2021/06/21 00:05:45;;;;;;;13.65;10.10;;;24.60;78.40;;;;;;2105788;28;20067;-68
2021/06/21 00:06:46;;;;;;;14.75;10.40;;;24.60;78.40;;;;;;2106067;28;20064;-67
2021/06/21 00:07:46;;;;;;;15.15;10.90;;;24.60;78.40;;;;;;2104415;28;20024;-68
2021/06/21 00:08:47;;;;;;;13.98;10.00;;;24.60;78.40;;;;;;2105194;28;20095;-68
2021/06/21 00:09:48;;;;;;;14.40;10.63;;;24.50;78.40;;;;;;2106030;28;20040;-67
2021/06/21 00:10:49;;;;;;;16.90;10.68;;;24.60;78.60;;;;;;2105814;28;20031;-67
2021/06/21 00:11:49;;;;;;;17.65;11.32;;;24.50;78.80;;;;;;2105630;28;20024;-68
2021/06/21 00:12:50;;;;;;;16.88;10.93;;;24.50;79.10;;;;;;2106082;28;20073;-67
2021/06/21 00:13:51;;;;;;;16.63;11.20;;;24.50;79.10;;;;;;2105944;28;20028;-67
2021/06/21 00:14:51;;;;;;;16.20;11.52;;;24.50;79.30;;;;;;2106051;28;20032;-67
2021/06/21 00:15:53;;;;;;;17.48;11.40;;;24.60;79.70;;;;;;2097328;28;20047;-67
2021/06/21 00:16:54;;;;;;;14.45;11.43;;;24.50;79.60;;;;;;2097487;28;20124;-67
2021/06/21 00:17:55;;;;;;;20.10;11.27;;;24.50;79.60;;;;;;2097275;28;20024;-67
2021/06/21 00:18:56;;;;;;;21.30;12.02;;;24.60;79.70;;;;;;2105645;28;20261;-67
2021/06/21 00:19:57;;;;;;;21.20;11.82;;;24.60;79.90;;;;;;2106319;28;20043;-68
2021/06/21 00:20:57;;;;;;;21.67;11.85;;;24.60;80.40;;;;;;2106373;28;20063;-68
2021/06/21 00:21:59;;;;;;;23.05;12.45;;;24.60;80.50;;;;;;2105108;28;20020;-68
2021/06/21 00:22:59;;;;;;;19.90;12.07;;;24.60;80.60;;;;;;2106094;28;20035;-67
2021/06/21 00:24:00;;;;;;;26.38;12.23;;;24.60;80.60;;;;;;2106012;28;20059;-67
2021/06/21 00:25:02;;;;;;;19.13;12.10;;;24.60;80.70;;;;;;2105685;28;20028;-68
2021/06/21 00:26:03;;;;;;;17.42;11.57;;;24.60;80.60;;;;;;2105868;28;20035;-68
2021/06/21 00:27:04;;;;;;;18.73;11.85;;;24.60;80.40;;;;;;2106158;28;20043;-67
2021/06/21 00:28:05;;;;;;;14.85;11.77;;;24.60;80.20;;;;;;2105628;28;20035;-68
2021/06/21 00:29:05;;;;;;;20.33;12.10;;;24.60;80.20;;;;;;2100781;28;20028;-67
2021/06/21 00:30:10;;;;;;;20.55;12.38;;;24.60;80.20;;;;;;2105609;28;20028;-67
2021/06/21 00:31:11;;;;;;;18.77;12.27;;;24.60;80.40;;;;;;2104853;28;20062;-67
2021/06/21 00:32:11;;;;;;;19.83;12.02;;;24.60;80.40;;;;;;2104705;28;20529;-67
2021/06/21 00:33:12;;;;;;;19.00;12.73;;;24.60;80.30;;;;;;2105917;28;20028;-67
2021/06/21 00:34:13;;;;;;;23.73;12.88;;;24.70;80.30;;;;;;2105156;28;20028;-69
2021/06/21 00:35:16;;;;;;;21.05;12.77;;;24.70;80.20;;;;;;2105407;28;20024;-67
2021/06/21 00:36:16;;;;;;;23.25;13.30;;;24.70;80.30;;;;;;2105084;28;20031;-67
2021/06/21 00:37:17;;;;;;;21.48;13.35;;;24.60;80.10;;;;;;2105381;28;20099;-68
2021/06/21 00:38:17;;;;;;;22.83;13.18;;;24.60;80.20;;;;;;2105736;28;20475;-67
2021/06/21 00:39:18;;;;;;;21.35;12.98;;;24.70;80.10;;;;;;2105619;28;20039;-68
2021/06/21 00:40:19;;;;;;;28.58;15.05;;;24.60;80.40;;;;;;2105453;28;20035;-67
2021/06/21 00:41:20;;;;;;;26.08;13.85;;;24.70;80.70;;;;;;2105438;28;20441;-67
2021/06/21 00:42:21;;;;;;;20.83;13.48;;;24.60;81.20;;;;;;2105856;28;20032;-66
2021/06/21 00:43:21;;;;;;;26.02;14.65;;;24.70;81.50;;;;;;2105953;28;20109;-66
2021/06/21 00:44:22;;;;;;;25.42;14.30;;;24.60;82.00;;;;;;2105643;28;20036;-68
2021/06/21 00:45:23;;;;;;;22.10;14.68;;;24.60;82.10;;;;;;2105196;28;20024;-67
2021/06/21 00:46:23;;;;;;;31.15;15.35;;;24.60;82.30;;;;;;2105143;28;20714;-67
2021/06/21 00:47:24;;;;;;;23.13;14.95;;;24.60;82.60;;;;;;2105807;28;20390;-68
2021/06/21 00:48:24;;;;;;;25.92;14.82;;;24.60;82.80;;;;;;2105356;28;20042;-67
2021/06/21 00:49:25;;;;;;;21.23;14.68;;;24.60;83.00;;;;;;2105754;28;20032;-67
2021/06/21 00:50:27;;;;;;;31.15;15.43;;;24.60;83.30;;;;;;2105911;28;20051;-68
2021/06/21 00:51:29;;;;;;;25.17;15.68;;;24.60;83.80;;;;;;2104821;28;20031;-68
2021/06/21 00:52:30;;;;;;;29.55;15.25;;;24.50;83.40;;;;;;2105412;28;20076;-68
2021/06/21 00:53:30;;;;;;;23.95;14.77;;;24.50;83.40;;;;;;2105483;28;20031;-68
2021/06/21 00:54:31;;;;;;;20.77;14.57;;;24.50;83.30;;;;;;2105387;28;20020;-67
2021/06/21 00:55:32;;;;;;;22.75;14.70;;;24.50;83.30;;;;;;2105645;28;20042;-68
2021/06/21 00:56:32;;;;;;;22.75;14.52;;;24.50;83.20;;;;;;2105732;28;20031;-69
2021/06/21 00:57:35;;;;;;;22.65;14.68;;;24.60;83.30;;;;;;2105657;28;20107;-67
2021/06/21 00:58:36;;;;;;;25.45;14.98;;;24.60;83.20;;;;;;2103992;28;20112;-67
2021/06/21 00:59:37;;;;;;;28.80;16.08;;;24.60;83.20;;;;;;2102200;28;20043;-67
2021/06/21 01:00:38;;;;;;;28.52;15.45;;;24.50;83.10;;;;;;2105054;28;20024;-67
2021/06/21 01:01:38;;;;;;;30.75;15.50;;;24.50;83.00;;;;;;2104373;28;20032;-67
2021/06/21 01:02:40;;;;;;;28.15;15.85;;;24.50;83.10;;;;;;2105383;28;20040;-66
2021/06/21 01:03:40;;;;;;;26.00;15.88;;;24.50;82.70;;;;;;2105675;28;20660;-67
2021/06/21 01:04:41;;;;;;;22.35;15.68;;;24.50;82.90;;;;;;2105484;28;20024;-67
2021/06/21 01:05:41;;;;;;;29.77;16.42;;;24.50;83.00;;;;;;2105827;28;20059;-67
2021/06/21 01:06:42;;;;;;;23.33;15.98;;;24.50;82.60;;;;;;2105360;28;20024;-66
2021/06/21 01:07:43;;;;;;;22.25;15.27;;;24.50;82.80;;;;;;2105565;28;20034;-68
2021/06/21 01:08:43;;;;;;;25.27;15.32;;;24.50;82.60;;;;;;2105174;28;20097;-67
2021/06/21 01:09:44;;;;;;;20.30;15.15;;;24.50;82.40;;;;;;2105442;28;20557;-67
2021/06/21 01:10:47;;;;;;;20.90;15.15;;;24.50;82.30;;;;;;2105443;28;20032;-67
2021/06/21 01:12:13;;;;;;;18.50;14.30;;;24.60;82.20;;;;;;2105098;28;20039;-66
2021/06/21 01:13:26;;;;;;;20.98;13.93;;;24.60;81.90;;;;;;2105931;28;20028;-66
2021/06/21 01:14:35;;;;;;;20.05;14.30;;;24.60;81.80;;;;;;2105870;28;20028;-66
2021/06/21 01:15:41;;;;;;;16.83;14.23;;;24.60;81.60;;;;;;2105910;28;20016;-67
2021/06/21 01:16:51;;;;;;;16.70;14.30;;;24.60;81.50;;;;;;2105656;28;20114;-66
2021/06/21 01:18:06;;;;;;;20.00;14.35;;;24.60;81.40;;;;;;2105397;28;20123;-67
2021/06/21 01:19:28;;;;;;;17.38;13.90;;;24.70;81.30;;;;;;2105447;28;20526;-68
2021/06/21 01:20:47;;;;;;;17.98;14.07;;;24.70;81.00;;;;;;2105664;28;20459;-66
2021/06/21 01:22:12;;;;;;;18.92;14.10;;;24.70;80.80;;;;;;2104398;28;20024;-66
2021/06/21 01:23:47;;;;;;;20.38;14.38;;;24.70;80.60;;;;;;2105193;28;20708;-66
2021/06/21 01:25:15;;;;;;;18.85;14.05;;;24.70;80.50;;;;;;2106049;28;20419;-67
2021/06/21 01:26:45;;;;;;;16.52;14.35;;;24.70;80.30;;;;;;2105187;28;20044;-67
2021/06/21 01:27:53;;;;;;;19.75;14.30;;;24.70;80.10;;;;;;2105639;28;20140;-67
2021/06/21 01:29:31;;;;;;;17.88;14.50;;;24.70;80.10;;;;;;2101184;28;20028;-67
2021/06/21 01:31:14;;;;;;;17.23;13.82;;;24.70;79.90;;;;;;2101185;28;20085;-66
2021/06/21 01:32:18;;;;;;;18.58;14.50;;;24.70;79.60;;;;;;2096840;28;20045;-67
2021/06/21 01:33:22;;;;;;;25.80;16.45;;;24.70;79.70;;;;;;2097332;28;20028;-66
2021/06/21 01:34:26;;;;;;;26.48;16.98;;;24.70;79.40;;;;;;2096944;28;20025;-65
2021/06/21 01:35:34;;;;;;;23.88;15.65;;;24.70;82.40;;;;;;2097348;28;20028;-67
2021/06/21 01:36:35;;;;;;;22.88;15.98;;;24.70;82.20;;;;;;2088376;28;20405;-65
2021/06/21 01:37:36;;;;;;;25.80;15.75;;;24.70;81.60;;;;;;2088274;28;20021;-66
2021/06/21 01:38:59;;;;;;;23.80;15.50;;;24.70;81.80;;;;;;2096180;28;20105;-66
2021/06/21 01:40:01;;;;;;;23.98;15.45;;;24.70;81.30;;;;;;2082645;28;20609;-66
2021/06/21 01:41:05;;;;;;;24.00;15.50;;;24.70;81.30;;;;;;2088234;28;20020;-66
2021/06/21 01:42:12;;;;;;;20.23;13.23;;;24.70;80.30;;;;;;2097031;28;20210;-66
2021/06/21 01:43:16;;;;;;;21.88;10.20;;;24.60;78.60;;;;;;2096360;28;20151;-66
2021/06/21 01:44:19;;;;;;;21.42;10.32;;;24.60;76.30;;;;;;2096341;28;20033;-66
2021/06/21 01:45:22;;;;;;;17.55;10.45;;;24.50;75.80;;;;;;2096217;28;20478;-67
2021/06/21 01:46:28;;;;;;;25.77;9.60;;;24.60;75.90;;;;;;2096396;28;20695;-66
2021/06/21 01:47:31;;;;;;;21.95;9.25;;;24.50;75.40;;;;;;2088750;28;20055;-66
2021/06/21 01:48:36;;;;;;;18.63;9.18;;;24.50;75.10;;;;;;2095996;28;20034;-65
2021/06/21 01:49:45;;;;;;;17.20;8.38;;;24.50;75.00;;;;;;2096927;28;20040;-66
2021/06/21 01:50:47;;;;;;;18.65;8.45;;;24.40;75.20;;;;;;2096913;28;20028;-66
2021/06/21 01:51:53;;;;;;;19.15;8.88;;;24.40;75.20;;;;;;2096565;28;20032;-66
2021/06/21 01:53:10;;;;;;;28.63;8.65;;;24.40;75.50;;;;;;2096915;28;20082;-68
2021/06/21 01:54:12;;;;;;;14.95;8.73;;;24.40;75.70;;;;;;2096794;28;20024;-67
2021/06/21 01:55:15;;;;;;;19.13;8.65;;;24.40;75.90;;;;;;2096781;28;20036;-67
2021/06/21 01:56:20;;;;;;;16.52;8.05;;;24.40;76.20;;;;;;2096792;28;20021;-67
2021/06/21 01:57:28;;;;;;;21.38;8.70;;;24.40;76.30;;;;;;2096800;28;20059;-66
2021/06/21 01:58:32;;;;;;;17.38;8.05;;;24.40;76.30;;;;;;2095808;28;20064;-67
2021/06/21 01:59:34;;;;;;;18.38;8.45;;;24.30;76.40;;;;;;2099795;28;20431;-67
2021/06/21 02:00:35;;;;;;;21.27;9.05;;;24.30;76.70;;;;;;2104985;28;20050;-67
2021/06/21 02:01:37;;;;;;;21.20;8.80;;;24.30;76.70;;;;;;2103749;28;20503;-66
2021/06/21 02:02:37;;;;;;;21.42;8.85;;;24.30;77.10;;;;;;2104289;28;20031;-67
2021/06/21 02:03:38;;;;;;;17.88;8.68;;;24.30;77.20;;;;;;2104914;28;20393;-67
2021/06/21 02:04:39;;;;;;;17.20;8.43;;;24.20;77.20;;;;;;2104887;28;20085;-66
2021/06/21 02:05:41;;;;;;;18.55;9.10;;;24.20;77.40;;;;;;2104919;28;20036;-67
2021/06/21 02:06:45;;;;;;;15.23;8.25;;;24.10;77.60;;;;;;2105023;28;20080;-67
2021/06/21 02:07:48;;;;;;;22.13;8.13;;;24.10;77.90;;;;;;2104936;28;20032;-66
2021/06/21 02:08:51;;;;;;;19.15;8.77;;;24.20;78.10;;;;;;2104599;28;20028;-66
2021/06/21 02:09:54;;;;;;;19.77;8.68;;;24.10;77.90;;;;;;2104800;28;20024;-65
2021/06/21 02:10:55;;;;;;;17.40;8.25;;;24.10;77.60;;;;;;2104935;28;20028;-67
2021/06/21 02:11:57;;;;;;;16.77;8.25;;;24.10;77.70;;;;;;2103392;28;20043;-66
2021/06/21 02:12:59;;;;;;;20.27;8.30;;;24.10;78.20;;;;;;2104366;28;20501;-66
2021/06/21 02:14:02;;;;;;;16.20;7.57;;;24.10;78.40;;;;;;2105016;28;20032;-66
2021/06/21 02:15:04;;;;;;;19.35;7.97;;;24.00;78.10;;;;;;2104650;28;20029;-66
2021/06/21 02:16:06;;;;;;;16.23;7.72;;;24.00;78.30;;;;;;2104786;28;20066;-66
2021/06/21 02:17:09;;;;;;;11.45;7.20;;;24.00;78.50;;;;;;2105054;28;20135;-66
2021/06/21 02:18:12;;;;;;;20.70;7.55;;;24.00;78.70;;;;;;2104832;28;20403;-66
2021/06/21 02:19:14;;;;;;;17.70;7.78;;;24.00;78.10;;;;;;2104009;28;20073;-67
2021/06/21 02:20:15;;;;;;;18.20;7.53;;;24.00;77.60;;;;;;2104426;28;20483;-68
2021/06/21 02:21:18;;;;;;;15.02;7.63;;;24.00;77.40;;;;;;2103816;28;20035;-67
2021/06/21 02:22:25;;;;;;;14.32;6.88;;;24.00;77.50;;;;;;2104527;28;20055;-68
2021/06/21 02:23:26;;;;;;;14.10;7.32;;;23.90;77.60;;;;;;2104999;28;20082;-68
2021/06/21 02:24:29;;;;;;;13.25;7.00;;;23.90;77.60;;;;;;2104583;28;20044;-67
2021/06/21 02:25:30;;;;;;;19.13;6.53;;;23.90;77.30;;;;;;2104708;28;20028;-66
2021/06/21 02:26:31;;;;;;;12.35;5.50;;;23.90;76.10;;;;;;2104889;28;20438;-66
2021/06/21 02:27:32;;;;;;;12.05;5.40;;;23.80;76.10;;;;;;2104765;28;20567;-66
2021/06/21 02:28:34;;;;;;;11.05;5.20;;;23.80;75.80;;;;;;2103329;28;20494;-66
2021/06/21 02:29:35;;;;;;;10.27;5.03;;;23.70;76.10;;;;;;2099637;28;20031;-66
2021/06/21 02:30:36;;;;;;;10.70;4.68;;;23.70;76.10;;;;;;2105394;28;20359;-67
2021/06/21 02:31:37;;;;;;;10.05;4.78;;;23.60;76.10;;;;;;2106195;28;20034;-66
2021/06/21 02:32:38;;;;;;;9.75;4.82;;;23.50;75.90;;;;;;2106642;28;20824;-65
2021/06/21 02:33:39;;;;;;;11.70;4.32;;;23.50;76.20;;;;;;2106464;28;20402;-66
2021/06/21 02:34:39;;;;;;;10.77;4.30;;;23.50;76.10;;;;;;2106665;28;20032;-66
2021/06/21 02:35:40;;;;;;;10.35;4.50;;;23.50;76.10;;;;;;2106675;28;20089;-66
2021/06/21 02:36:41;;;;;;;10.57;4.47;;;23.50;75.90;;;;;;2106912;28;20135;-66
2021/06/21 02:37:42;;;;;;;12.63;4.32;;;23.50;76.10;;;;;;2106546;28;20059;-66
2021/06/21 02:38:43;;;;;;;12.13;4.03;;;23.50;76.60;;;;;;2106423;28;20426;-66
2021/06/21 02:39:44;;;;;;;8.40;4.60;;;23.50;76.10;;;;;;2105673;28;20055;-66
2021/06/21 02:40:45;;;;;;;11.27;4.65;;;23.50;76.30;;;;;;2105454;28;20035;-66
2021/06/21 02:41:45;;;;;;;11.75;5.18;;;23.50;76.40;;;;;;2105881;28;20351;-66
2021/06/21 02:42:46;;;;;;;10.85;4.72;;;23.50;76.30;;;;;;2106499;28;20024;-66
2021/06/21 02:43:46;;;;;;;11.20;4.78;;;23.50;76.30;;;;;;2105912;28;20067;-66
2021/06/21 02:44:47;;;;;;;11.82;5.15;;;23.50;76.50;;;;;;2105798;28;20067;-68
2021/06/21 02:45:48;;;;;;;8.25;4.25;;;23.50;77.00;;;;;;2106597;28;20023;-66
2021/06/21 02:46:49;;;;;;;10.23;4.40;;;23.50;76.90;;;;;;2106715;28;20024;-67
2021/06/21 02:47:50;;;;;;;9.65;4.40;;;23.50;76.80;;;;;;2106432;28;20032;-67
2021/06/21 02:48:52;;;;;;;7.80;4.32;;;23.50;76.70;;;;;;2105876;28;20032;-66
2021/06/21 02:49:53;;;;;;;8.50;4.65;;;23.50;76.70;;;;;;2105473;28;20059;-66
2021/06/21 02:50:55;;;;;;;12.43;4.88;;;23.50;76.80;;;;;;2106052;28;20016;-67
2021/06/21 02:52:10;;;;;;;16.42;5.20;;;23.50;77.00;;;;;;2105785;28;20103;-66
2021/06/21 02:53:17;;;;;;;11.70;4.65;;;23.50;77.10;;;;;;2106629;28;20089;-67
2021/06/21 02:54:28;;;;;;;9.10;4.68;;;23.50;77.30;;;;;;2106585;28;20028;-67
2021/06/21 02:55:36;;;;;;;7.65;4.63;;;23.50;77.20;;;;;;2106498;28;20473;-66
2021/06/21 02:57:09;;;;;;;8.27;4.38;;;23.50;77.40;;;;;;2106660;28;20039;-66
2021/06/21 02:58:24;;;;;;;9.98;4.60;;;23.40;77.60;;;;;;2096704;28;20032;-67
2021/06/21 02:59:25;;;;;;;7.57;4.45;;;23.40;77.70;;;;;;2098493;28;20123;-66
2021/06/21 03:00:27;;;;;;;11.52;4.50;;;23.50;77.80;;;;;;2106480;28;20118;-66
2021/06/21 03:01:27;;;;;;;6.22;4.18;;;23.40;77.90;;;;;;2105973;28;20483;-66
2021/06/21 03:02:29;;;;;;;10.43;4.32;;;23.40;78.10;;;;;;2106258;28;20104;-66
2021/06/21 03:03:34;;;;;;;8.52;4.10;;;23.50;78.50;;;;;;2106512;28;20024;-67
2021/06/21 03:04:38;;;;;;;8.23;4.93;;;23.50;78.50;;;;;;2106827;28;20102;-66
2021/06/21 03:05:41;;;;;;;8.95;4.50;;;23.50;78.50;;;;;;2105646;28;20024;-66
2021/06/21 03:06:45;;;;;;;8.80;4.50;;;23.40;78.40;;;;;;2097807;28;20024;-66
2021/06/21 03:07:49;;;;;;;12.20;4.45;;;23.40;77.90;;;;;;2097761;28;20526;-67
2021/06/21 03:08:51;;;;;;;10.30;4.40;;;23.50;77.40;;;;;;2097022;28;20684;-66
2021/06/21 03:09:52;;;;;;;9.80;5.03;;;23.50;77.00;;;;;;2097394;28;20490;-66
2021/06/21 03:10:55;;;;;;;9.95;4.20;;;23.50;76.90;;;;;;2106184;28;20024;-67
2021/06/21 03:11:58;;;;;;;8.27;4.50;;;23.50;77.00;;;;;;2105909;28;20046;-66
2021/06/21 03:13:01;;;;;;;6.55;4.35;;;23.40;77.20;;;;;;2106292;28;20399;-66
2021/06/21 03:14:02;;;;;;;7.55;4.57;;;23.40;77.40;;;;;;2106514;28;20027;-66
2021/06/21 03:15:03;;;;;;;9.25;4.43;;;23.40;77.40;;;;;;2106654;28;20028;-66
2021/06/21 03:16:05;;;;;;;7.35;4.28;;;23.30;77.50;;;;;;2105892;28;20032;-66
2021/06/21 03:17:08;;;;;;;6.32;4.10;;;23.30;77.60;;;;;;2106509;28;20043;-66
2021/06/21 03:18:13;;;;;;;6.22;4.00;;;23.30;77.70;;;;;;2106170;28;20028;-65
2021/06/21 03:19:14;;;;;;;8.00;4.40;;;23.30;77.90;;;;;;2106361;28;20024;-66
2021/06/21 03:20:17;;;;;;;6.90;4.10;;;23.30;78.00;;;;;;2106675;28;20451;-66
2021/06/21 03:21:19;;;;;;;7.68;4.50;;;23.30;77.80;;;;;;2105490;28;20810;-66
2021/06/21 03:22:23;;;;;;;8.23;4.20;;;23.30;77.80;;;;;;2105914;28;20032;-66
2021/06/21 03:23:30;;;;;;;7.97;4.50;;;23.30;77.80;;;;;;2106232;28;20396;-66
2021/06/21 03:24:31;;;;;;;7.38;4.68;;;23.30;77.80;;;;;;2106039;28;20024;-68
2021/06/21 03:25:34;;;;;;;8.93;4.70;;;23.30;77.80;;;;;;2106316;28;20028;-68
2021/06/21 03:26:35;;;;;;;9.77;4.30;;;23.30;77.80;;;;;;2106274;28;20106;-68
2021/06/21 03:27:36;;;;;;;7.85;4.05;;;23.30;77.70;;;;;;2106438;28;20039;-68
2021/06/21 03:28:37;;;;;;;7.45;4.38;;;23.30;77.80;;;;;;2104432;28;20032;-67
2021/06/21 03:29:38;;;;;;;6.63;4.28;;;23.30;77.80;;;;;;2099800;28;20032;-66
2021/06/21 03:30:51;;;;;;;7.88;4.18;;;23.40;77.70;;;;;;2106462;28;20043;-66
2021/06/21 03:31:53;;;;;;;8.95;4.38;;;23.40;77.60;;;;;;2105781;28;20045;-66
2021/06/21 03:32:53;;;;;;;8.88;4.03;;;23.30;77.60;;;;;;2106469;28;20158;-66
2021/06/21 03:33:54;;;;;;;9.50;4.60;;;23.40;77.70;;;;;;2106414;28;20186;-66
2021/06/21 03:35:03;;;;;;;7.25;4.50;;;23.40;77.60;;;;;;2105658;28;20067;-66
2021/06/21 03:36:06;;;;;;;8.90;4.35;;;23.40;77.70;;;;;;2105924;28;20024;-67
2021/06/21 03:37:07;;;;;;;7.07;3.85;;;23.40;77.50;;;;;;2106600;28;20119;-66
2021/06/21 03:38:12;;;;;;;9.02;4.28;;;23.40;77.70;;;;;;2105122;28;20487;-66
2021/06/21 03:39:13;;;;;;;7.65;4.28;;;23.40;77.60;;;;;;2105271;28;20055;-66
2021/06/21 03:40:14;;;;;;;6.95;4.30;;;23.40;77.60;;;;;;2105648;28;20046;-66
2021/06/21 03:41:15;;;;;;;7.40;4.10;;;23.50;77.40;;;;;;2105749;28;20063;-66
2021/06/21 03:42:16;;;;;;;7.85;4.50;;;23.50;77.20;;;;;;2105147;28;20110;-66
2021/06/21 03:43:20;;;;;;;8.15;4.55;;;23.50;77.20;;;;;;2106309;28;20036;-66
2021/06/21 03:44:20;;;;;;;7.30;4.20;;;23.50;77.30;;;;;;2106307;28;20127;-66
2021/06/21 03:45:21;;;;;;;8.82;4.40;;;23.50;77.40;;;;;;2105539;28;20069;-67
2021/06/21 03:46:21;;;;;;;8.65;4.80;;;23.50;77.40;;;;;;2105612;28;20119;-66
2021/06/21 03:47:22;;;;;;;8.98;4.70;;;23.50;77.50;;;;;;2106040;28;20031;-66
2021/06/21 03:48:23;;;;;;;9.30;4.53;;;23.50;77.40;;;;;;2106064;28;20040;-65
2021/06/21 03:49:24;;;;;;;10.43;4.75;;;23.50;78.90;;;;;;2106595;28;20024;-65
2021/06/21 03:50:24;;;;;;;9.25;4.43;;;23.50;78.40;;;;;;2107386;28;20054;-65
2021/06/21 03:51:25;;;;;;;9.38;4.55;;;23.50;78.70;;;;;;2106861;28;20024;-65
2021/06/21 03:52:26;;;;;;;8.85;4.30;;;23.50;79.00;;;;;;2107530;28;20142;-65
2021/06/21 03:53:28;;;;;;;9.43;4.80;;;23.50;79.20;;;;;;2107290;28;20012;-65
2021/06/21 03:54:29;;;;;;;8.93;4.63;;;23.50;79.40;;;;;;2107029;28;20012;-65
2021/06/21 03:55:30;;;;;;;9.73;4.72;;;23.50;79.30;;;;;;2106795;28;20012;-65
2021/06/21 03:56:30;;;;;;;10.77;5.30;;;23.50;78.90;;;;;;2107067;28;20071;-65
2021/06/21 03:57:31;;;;;;;10.93;4.90;;;23.50;78.70;;;;;;2106724;28;20066;-65
2021/06/21 03:58:32;;;;;;;11.00;4.75;;;23.50;78.80;;;;;;2105986;28;20463;-65
2021/06/21 03:59:33;;;;;;;11.05;5.60;;;23.50;78.90;;;;;;2106382;28;20056;-65
2021/06/21 04:00:36;;;;;;;10.05;5.32;;;23.50;79.10;;;;;;2106186;28;20102;-65
2021/06/21 04:01:37;;;;;;;11.98;5.07;;;23.50;78.90;;;;;;2105590;28;20024;-65
2021/06/21 04:02:37;;;;;;;11.02;5.40;;;23.60;78.60;;;;;;2106316;28;20107;-65
2021/06/21 04:03:38;;;;;;;8.70;5.38;;;23.60;78.30;;;;;;2107086;28;20043;-65
2021/06/21 04:04:38;;;;;;;6.78;4.90;;;23.60;77.90;;;;;;2106679;28;20020;-65
2021/06/21 04:05:40;;;;;;;10.68;5.60;;;23.50;77.80;;;;;;2106813;28;20020;-65
2021/06/21 04:06:40;;;;;;;8.82;5.35;;;23.60;77.80;;;;;;2106499;28;20032;-65
2021/06/21 04:07:42;;;;;;;7.82;5.18;;;23.50;77.90;;;;;;2106571;28;20027;-66
2021/06/21 04:08:43;;;;;;;9.18;5.18;;;23.50;77.90;;;;;;2106012;28;20062;-65
2021/06/21 04:09:43;;;;;;;10.15;4.95;;;23.50;77.80;;;;;;2106470;28;20107;-66
2021/06/21 04:10:45;;;;;;;9.07;5.13;;;23.60;77.80;;;;;;2106798;28;20055;-65
2021/06/21 04:11:46;;;;;;;8.93;5.25;;;23.50;77.80;;;;;;2106284;28;20052;-66
2021/06/21 04:12:48;;;;;;;11.18;5.50;;;23.50;77.70;;;;;;2106227;28;20410;-65
2021/06/21 04:13:48;;;;;;;8.52;5.20;;;23.60;77.80;;;;;;2097662;28;20480;-66
2021/06/21 04:14:50;;;;;;;10.32;5.50;;;23.60;77.90;;;;;;2105962;28;20063;-64
2021/06/21 04:15:51;;;;;;;10.40;5.75;;;23.60;78.00;;;;;;2097470;28;20028;-66
2021/06/21 04:16:51;;;;;;;12.02;5.95;;;23.60;77.80;;;;;;2097290;28;20090;-66
2021/06/21 04:17:52;;;;;;;14.07;6.32;;;23.60;77.80;;;;;;2106291;28;20020;-65
2021/06/21 04:18:52;;;;;;;12.73;6.00;;;23.60;77.80;;;;;;2105273;28;20464;-66
2021/06/21 04:19:53;;;;;;;12.98;6.47;;;23.60;77.90;;;;;;2105430;28;20035;-65
2021/06/21 04:20:54;;;;;;;10.25;5.93;;;23.50;78.00;;;;;;2106206;28;20540;-65
2021/06/21 04:21:55;;;;;;;8.63;5.55;;;23.60;78.20;;;;;;2105572;28;20059;-65
2021/06/21 04:22:57;;;;;;;8.55;5.68;;;23.50;78.10;;;;;;2106050;28;20077;-65
2021/06/21 04:23:58;;;;;;;11.20;6.47;;;23.50;78.20;;;;;;2106190;28;20032;-64
2021/06/21 04:24:59;;;;;;;11.02;6.13;;;23.60;78.10;;;;;;2106079;28;20032;-65
2021/06/21 04:25:59;;;;;;;10.98;5.85;;;23.60;78.00;;;;;;2106234;28;20479;-67
2021/06/21 04:27:00;;;;;;;12.70;6.00;;;23.60;77.90;;;;;;2106089;28;20122;-67
2021/06/21 04:28:02;;;;;;;12.75;5.32;;;23.60;77.70;;;;;;2105689;28;20063;-67
2021/06/21 04:29:03;;;;;;;11.13;5.60;;;23.60;77.30;;;;;;2104286;28;20024;-67
2021/06/21 04:30:08;;;;;;;9.82;5.90;;;23.60;77.40;;;;;;2104995;28;20106;-67
2021/06/21 04:31:09;;;;;;;8.40;5.55;;;23.70;77.30;;;;;;2105100;28;20028;-67
2021/06/21 04:32:10;;;;;;;9.27;5.63;;;23.70;77.40;;;;;;2105744;28;20051;-67
2021/06/21 04:33:11;;;;;;;14.25;6.10;;;23.70;77.40;;;;;;2105321;28;20032;-67
2021/06/21 04:34:11;;;;;;;12.05;5.60;;;23.70;77.20;;;;;;2105238;28;20024;-67
2021/06/21 04:35:15;;;;;;;9.07;5.82;;;23.70;77.20;;;;;;2105902;28;20031;-67
2021/06/21 04:36:15;;;;;;;11.50;6.20;;;23.70;77.20;;;;;;2105828;28;20027;-67
2021/06/21 04:37:16;;;;;;;12.30;6.43;;;23.70;77.30;;;;;;2105554;28;20034;-67
2021/06/21 04:38:17;;;;;;;12.45;6.45;;;23.70;77.40;;;;;;2105500;28;20040;-67
2021/06/21 04:39:17;;;;;;;13.90;6.35;;;23.70;77.80;;;;;;2105495;28;20036;-67
2021/06/21 04:40:21;;;;;;;12.35;5.90;;;23.70;77.40;;;;;;2105170;28;20143;-67
2021/06/21 04:41:21;;;;;;;9.77;6.13;;;23.70;77.40;;;;;;2104899;28;20035;-67
2021/06/21 04:42:22;;;;;;;9.40;6.20;;;23.70;77.40;;;;;;2106033;28;20020;-67
2021/06/21 04:43:23;;;;;;;13.48;6.45;;;23.80;77.40;;;;;;2106039;28;20066;-67
2021/06/21 04:44:23;;;;;;;8.77;5.97;;;23.80;77.30;;;;;;2105586;28;20035;-67
2021/06/21 04:45:25;;;;;;;12.23;6.18;;;23.90;77.20;;;;;;2105716;28;20098;-68
2021/06/21 04:46:29;;;;;;;10.63;6.15;;;23.90;77.20;;;;;;2096924;28;20021;-67
2021/06/21 04:47:30;;;;;;;15.23;6.70;;;23.90;77.00;;;;;;2097345;28;20044;-67
2021/06/21 04:48:31;;;;;;;11.88;6.32;;;24.00;77.00;;;;;;2105531;28;20391;-66
2021/06/21 04:49:32;;;;;;;12.48;6.63;;;24.00;76.80;;;;;;2104780;28;20024;-67
2021/06/21 04:50:35;;;;;;;11.38;6.30;;;24.10;76.70;;;;;;2105286;28;20020;-66
2021/06/21 04:51:35;;;;;;;9.43;6.00;;;24.10;76.20;;;;;;2105066;28;20028;-68
2021/06/21 04:52:38;;;;;;;13.43;6.50;;;24.20;76.80;;;;;;2105154;28;20028;-68
2021/06/21 04:53:39;;;;;;;10.70;6.28;;;24.30;75.60;;;;;;2104517;28;20034;-67
2021/06/21 04:54:40;;;;;;;9.82;5.97;;;24.30;75.30;;;;;;2105677;28;20024;-67
2021/06/21 04:55:41;;;;;;;11.82;6.57;;;24.40;75.00;;;;;;2105641;28;20054;-68
2021/06/21 04:56:42;;;;;;;9.52;6.28;;;24.50;74.80;;;;;;2105564;28;20024;-67
2021/06/21 04:57:43;;;;;;;18.40;7.22;;;24.50;74.60;;;;;;2105171;28;20054;-68
2021/06/21 04:58:44;;;;;;;15.40;7.25;;;24.60;74.40;;;;;;2104362;28;20441;-66
2021/06/21 04:59:45;;;;;;;10.18;6.72;;;24.60;74.20;;;;;;2105273;28;20503;-67
2021/06/21 05:00:45;;;;;;;11.02;6.13;;;24.60;73.90;;;;;;2105686;28;20028;-67
2021/06/21 05:01:46;;;;;;;12.13;6.43;;;24.70;73.50;;;;;;2105221;28;20065;-67
2021/06/21 05:02:48;;;;;;;12.70;6.18;;;24.70;73.20;;;;;;2105031;28;20400;-66
2021/06/21 05:03:51;;;;;;;16.02;6.53;;;24.80;73.30;;;;;;2096544;28;20032;-67
2021/06/21 05:04:52;;;;;;;11.35;6.13;;;24.70;73.90;;;;;;2096872;28;20459;-67
2021/06/21 05:05:53;;;;;;;12.98;5.90;;;24.80;73.10;;;;;;2104742;28;20027;-67
2021/06/21 05:06:53;;;;;;;11.35;5.65;;;24.90;73.00;;;;;;2105028;28;20558;-67
2021/06/21 05:07:55;;;;;;;12.30;5.80;;;24.90;72.50;;;;;;2104777;28;20024;-67
2021/06/21 05:08:56;;;;;;;10.25;5.68;;;25.00;72.00;;;;;;2105581;28;20132;-67
2021/06/21 05:09:57;;;;;;;11.27;5.40;;;25.00;71.60;;;;;;2105485;28;20024;-67
2021/06/21 05:10:58;;;;;;;14.38;5.95;;;25.00;71.20;;;;;;2105517;28;20114;-66
2021/06/21 05:12:00;;;;;;;14.50;5.80;;;25.00;71.80;;;;;;2104816;28;20036;-66
2021/06/21 05:13:00;;;;;;;10.02;5.50;;;25.00;71.00;;;;;;2104999;28;20020;-68
2021/06/21 05:14:01;;;;;;;10.70;5.28;;;25.10;71.10;;;;;;2096442;28;20021;-68
2021/06/21 05:15:03;;;;;;;13.20;5.88;;;25.10;71.00;;;;;;2104714;28;20054;-67
2021/06/21 05:16:05;;;;;;;9.55;5.70;;;25.10;71.00;;;;;;2105648;28;20031;-68
2021/06/21 05:17:10;;;;;;;10.43;5.72;;;25.20;71.00;;;;;;2105017;28;20040;-68
2021/06/21 05:18:10;;;;;;;14.48;6.03;;;25.20;70.90;;;;;;2104233;28;20046;-67
2021/06/21 05:19:11;;;;;;;11.65;6.03;;;25.20;70.60;;;;;;2105390;28;20471;-68
2021/06/21 05:20:12;;;;;;;11.77;6.35;;;25.20;70.80;;;;;;2105414;28;20032;-67
2021/06/21 05:21:12;;;;;;;12.75;6.10;;;25.20;71.00;;;;;;2105083;28;20039;-68
2021/06/21 05:22:13;;;;;;;19.05;6.13;;;25.20;71.00;;;;;;2105548;28;20036;-67
2021/06/21 05:23:14;;;;;;;16.33;6.95;;;25.20;71.20;;;;;;2105648;28;20394;-67